Time;durP1;ratioP1;P1;durP2;ratioP2;P2;SDS_P1;SDS_P2;PMS_P1;PMS_P2;Temp;Humidity;BMP_temperature;BMP_pressure;BME280_temperature;BME280_humidity;BME280_pressure;Samples;Min_cycle;Max_cycle;Signal;HPM_P1;HPM_P2
2022/01/08 00:01:47;;;;;;;0.40;0.30;;;;;;;2.49;100.00;100460.19;5095603;28;20471;-73
2022/01/08 00:04:13;;;;;;;1.00;1.00;;;;;;;2.39;100.00;100454.75;5095499;28;20988;-72
2022/01/08 00:06:39;;;;;;;0.40;0.30;;;;;;;2.27;100.00;100452.19;5095595;28;20444;-72
2022/01/08 00:09:06;;;;;;;0.40;0.30;;;;;;;2.26;100.00;100457.78;5095608;28;20455;-72
2022/01/08 00:11:32;;;;;;;0.40;0.30;;;;;;;2.19;100.00;100447.28;5095449;28;20445;-72
2022/01/08 00:13:59;;;;;;;0.40;0.20;;;;;;;2.19;100.00;100449.94;5095239;28;20811;-72
2022/01/08 00:16:25;;;;;;;0.40;0.30;;;;;;;2.19;100.00;100443.81;5095510;28;20486;-72
2022/01/08 00:18:53;;;;;;;0.40;0.30;;;;;;;2.18;100.00;100443.00;5095413;28;20628;-72
2022/01/08 00:21:20;;;;;;;1.03;1.03;;;;;;;2.20;100.00;100443.53;5095012;28;20457;-72
2022/01/08 00:23:46;;;;;;;0.40;0.30;;;;;;;2.20;100.00;100446.22;5094865;28;20511;-72
2022/01/08 00:26:13;;;;;;;0.40;0.30;;;;;;;2.16;100.00;100441.63;5094962;28;20451;-72
2022/01/08 00:28:39;;;;;;;0.40;0.30;;;;;;;2.12;100.00;100443.16;5094957;28;20490;-72
2022/01/08 00:31:09;;;;;;;0.40;0.30;;;;;;;2.10;100.00;100442.63;5094899;28;20790;-71
2022/01/08 00:33:36;;;;;;;0.40;0.30;;;;;;;2.05;100.00;100445.22;5094752;28;20500;-71
2022/01/08 00:36:04;;;;;;;0.40;0.30;;;;;;;2.01;100.00;100444.91;5094735;28;20441;-71
2022/01/08 00:38:31;;;;;;;0.40;0.30;;;;;;;1.95;100.00;100444.06;5094737;28;20448;-71
2022/01/08 00:40:57;;;;;;;0.40;0.30;;;;;;;1.93;100.00;100450.69;5094742;28;20451;-71
2022/01/08 00:43:24;;;;;;;0.40;0.30;;;;;;;1.95;100.00;100444.06;5094576;28;20460;-71
2022/01/08 00:45:50;;;;;;;0.40;0.30;;;;;;;1.94;100.00;100444.28;5094519;28;20480;-70
2022/01/08 00:48:17;;;;;;;0.40;0.30;;;;;;;1.92;100.00;100439.19;5094537;28;20857;-71
2022/01/08 00:50:43;;;;;;;0.40;0.30;;;;;;;1.89;100.00;100439.69;5094504;28;20445;-71
2022/01/08 00:53:11;;;;;;;0.40;0.30;;;;;;;1.85;100.00;100443.09;5094085;28;20468;-71
2022/01/08 00:55:37;;;;;;;0.40;0.30;;;;;;;1.85;100.00;100445.75;5094389;28;20436;-71
2022/01/08 00:58:04;;;;;;;0.40;0.30;;;;;;;1.87;100.00;100449.81;5094382;28;20441;-71
2022/01/08 01:00:31;;;;;;;0.40;0.30;;;;;;;1.91;100.00;100439.44;5093882;28;20806;-72
2022/01/08 01:02:58;;;;;;;1.17;1.13;;;;;;;1.90;100.00;100440.47;5093918;28;20484;-69
2022/01/08 01:05:24;;;;;;;0.40;0.20;;;;;;;1.90;100.00;100424.47;5094197;28;20483;-70
2022/01/08 01:07:50;;;;;;;0.50;0.30;;;;;;;1.91;100.00;100431.44;5094193;28;20441;-69
2022/01/08 01:10:18;;;;;;;0.40;0.30;;;;;;;1.91;100.00;100424.22;5094101;28;20448;-69
2022/01/08 01:12:45;;;;;;;0.40;0.30;;;;;;;1.87;100.00;100412.44;5094009;28;20467;-69
2022/01/08 01:15:14;;;;;;;0.40;0.30;;;;;;;1.90;100.00;100416.44;5094041;28;20440;-68
2022/01/08 01:17:41;;;;;;;0.40;0.30;;;;;;;1.90;100.00;100427.94;5095318;28;20444;-69
2022/01/08 01:20:10;;;;;;;0.40;0.30;;;;;;;1.92;100.00;100425.03;5093744;28;20937;-71
2022/01/08 01:22:45;;;;;;;0.40;0.30;;;;;;;1.92;100.00;100422.38;5093879;28;20499;-71
2022/01/08 01:25:15;;;;;;;0.40;0.30;;;;;;;1.97;100.00;100422.44;5093802;28;20460;-71
2022/01/08 01:28:02;;;;;;;0.50;0.50;;;;;;;1.98;100.00;100418.69;5093880;28;20448;-71
2022/01/08 01:41:38;;;;;;;0.40;0.30;;;;;;;1.93;100.00;100403.41;5093476;28;20469;-70
2022/01/08 01:47:03;;;;;;;0.73;0.70;;;;;;;2.00;100.00;100403.25;5093470;28;20404;-71
2022/01/08 01:49:31;;;;;;;0.40;0.30;;;;;;;2.05;100.00;100397.16;5093642;28;20425;-71
2022/01/08 01:51:59;;;;;;;0.40;0.30;;;;;;;2.08;100.00;100391.28;5093492;28;20460;-71
2022/01/08 01:54:25;;;;;;;0.40;0.30;;;;;;;2.07;100.00;100385.16;5093527;28;20475;-71
2022/01/08 01:56:52;;;;;;;0.40;0.30;;;;;;;2.10;100.00;100384.66;5093490;28;20436;-71
2022/01/08 01:59:20;;;;;;;0.40;0.30;;;;;;;2.12;100.00;100395.09;5093374;28;20452;-71
2022/01/08 02:01:46;;;;;;;0.40;0.30;;;;;;;2.12;100.00;100390.53;5093079;28;20444;-71
2022/01/08 02:04:12;;;;;;;0.40;0.20;;;;;;;2.16;100.00;100383.66;5093414;28;20428;-71
2022/01/08 02:06:39;;;;;;;1.37;1.27;;;;;;;2.19;100.00;100383.16;5093381;28;20445;-71
2022/01/08 02:09:05;;;;;;;0.40;0.30;;;;;;;2.25;100.00;100386.69;5093330;28;20476;-71
2022/01/08 02:11:32;;;;;;;0.40;0.30;;;;;;;2.27;100.00;100379.25;5094861;28;20824;-71
2022/01/08 02:14:02;;;;;;;0.43;0.33;;;;;;;2.32;100.00;100381.16;5097233;28;20844;-71
2022/01/08 02:16:30;;;;;;;0.40;0.30;;;;;;;2.31;100.00;100384.91;5097245;28;20455;-71
2022/01/08 02:18:57;;;;;;;0.40;0.30;;;;;;;2.31;100.00;100377.69;5097414;28;20440;-71
2022/01/08 02:21:26;;;;;;;0.40;0.30;;;;;;;2.33;100.00;100377.41;5097058;28;20448;-71
2022/01/08 02:23:52;;;;;;;0.40;0.30;;;;;;;2.35;100.00;100388.69;5097229;28;20464;-72
2022/01/08 02:26:19;;;;;;;0.50;0.40;;;;;;;2.35;100.00;100381.47;5097189;28;20490;-71
2022/01/08 02:28:45;;;;;;;0.73;0.67;;;;;;;2.35;100.00;100394.03;5097266;28;20455;-71
2022/01/08 02:31:23;;;;;;;0.40;0.30;;;;;;;2.34;100.00;100389.72;5097297;28;20816;-71
2022/01/08 02:33:50;;;;;;;0.40;0.30;;;;;;;2.34;100.00;100393.19;5097063;28;20471;-71
2022/01/08 02:36:16;;;;;;;0.40;0.30;;;;;;;2.36;100.00;100391.09;5097229;28;20485;-72
2022/01/08 02:38:45;;;;;;;0.40;0.30;;;;;;;2.34;100.00;100387.84;5097340;28;20448;-72
2022/01/08 02:41:12;;;;;;;0.40;0.20;;;;;;;2.37;100.00;100386.56;5097000;28;20814;-71
2022/01/08 02:43:45;;;;;;;0.40;0.20;;;;;;;2.39;100.00;100382.59;5096974;28;20464;-71
2022/01/08 02:46:11;;;;;;;1.33;1.23;;;;;;;2.41;100.00;100390.34;5096602;28;21084;-72
2022/01/08 02:48:38;;;;;;;0.40;0.30;;;;;;;2.45;100.00;100391.44;5096880;28;20448;-71
2022/01/08 02:51:04;;;;;;;0.40;0.30;;;;;;;2.45;100.00;100386.91;5096916;28;20467;-72
2022/01/08 02:53:31;;;;;;;0.40;0.30;;;;;;;2.47;100.00;100389.31;5096543;28;20992;-71
2022/01/08 02:55:58;;;;;;;0.40;0.30;;;;;;;2.49;100.00;100387.22;5096805;28;20808;-72
2022/01/08 02:58:26;;;;;;;0.40;0.30;;;;;;;2.44;100.00;100385.31;5096813;28;20435;-71
2022/01/08 03:00:53;;;;;;;0.40;0.27;;;;;;;2.46;100.00;100377.03;5096691;28;20448;-71
2022/01/08 03:03:19;;;;;;;0.40;0.20;;;;;;;2.47;100.00;100374.09;5096087;28;20876;-72
2022/01/08 03:05:46;;;;;;;0.40;0.30;;;;;;;2.48;100.00;100374.91;5096447;28;20488;-72
2022/01/08 03:08:12;;;;;;;0.40;0.20;;;;;;;2.46;100.00;100377.81;5097617;28;20494;-72
2022/01/08 03:10:38;;;;;;;0.40;0.20;;;;;;;2.46;100.00;100377.03;5096689;28;20444;-71
2022/01/08 03:13:07;;;;;;;0.40;0.30;;;;;;;2.47;100.00;100365.25;5096161;28;21011;-71
2022/01/08 03:15:36;;;;;;;0.40;0.27;;;;;;;2.47;100.00;100371.41;5096388;28;20444;-72
2022/01/08 03:18:03;;;;;;;0.40;0.30;;;;;;;2.46;100.00;100371.69;5096368;28;20468;-71
2022/01/08 03:20:30;;;;;;;1.17;0.90;;;;;;;2.37;100.00;100376.66;5096272;28;20448;-71
2022/01/08 03:23:02;;;;;;;0.40;0.30;;;;;;;2.37;100.00;100378.53;5096182;28;20464;-72
2022/01/08 03:25:29;;;;;;;0.40;0.23;;;;;;;2.35;100.00;100380.66;5096110;28;20468;-72
2022/01/08 03:27:56;;;;;;;0.40;0.20;;;;;;;2.34;100.00;100373.69;5096225;28;20463;-72
2022/01/08 03:30:24;;;;;;;0.40;0.30;;;;;;;2.31;100.00;100379.56;5096141;28;20451;-72
2022/01/08 03:32:51;;;;;;;0.40;0.20;;;;;;;2.35;100.00;100372.66;5095678;28;20468;-75
2022/01/08 03:35:18;;;;;;;0.40;0.30;;;;;;;2.35;100.00;100364.63;5095942;28;20443;-72
2022/01/08 03:37:44;;;;;;;0.40;0.30;;;;;;;2.33;100.00;100361.38;5095949;28;20440;-73
2022/01/08 03:40:12;;;;;;;0.40;0.30;;;;;;;2.23;100.00;100367.44;5095910;28;20489;-71
2022/01/08 03:42:38;;;;;;;0.40;0.27;;;;;;;2.21;100.00;100370.38;5095772;28;20464;-70
2022/01/08 03:45:06;;;;;;;0.40;0.30;;;;;;;2.22;100.00;100371.97;5095704;28;20448;-70
2022/01/08 03:47:54;;;;;;;0.40;0.30;;;;;;;2.13;100.00;100370.81;5095752;28;20514;-70
2022/01/08 03:50:20;;;;;;;0.40;0.20;;;;;;;2.20;100.00;100368.72;5095401;28;20936;-70
2022/01/08 03:52:47;;;;;;;2.30;2.07;;;;;;;2.24;100.00;100369.84;5095587;28;20506;-70
2022/01/08 03:55:14;;;;;;;0.50;0.50;;;;;;;2.30;100.00;100377.91;5095637;28;20436;-70
2022/01/08 03:57:40;;;;;;;0.40;0.30;;;;;;;2.29;100.00;100366.41;5095575;28;20444;-70
2022/01/08 04:00:08;;;;;;;0.40;0.30;;;;;;;2.33;100.00;100383.56;5095652;28;20440;-70
2022/01/08 04:02:36;;;;;;;0.40;0.30;;;;;;;2.35;100.00;100375.31;5095149;28;20847;-71
2022/01/08 04:05:02;;;;;;;1.60;1.53;;;;;;;2.39;100.00;100376.41;5095408;28;20448;-70
2022/01/08 04:07:28;;;;;;;0.40;0.30;;;;;;;2.40;100.00;100372.69;5095342;28;20447;-70
2022/01/08 04:09:55;;;;;;;0.40;0.30;;;;;;;2.44;100.00;100371.13;5095325;28;20444;-70
2022/01/08 04:12:31;;;;;;;0.40;0.30;;;;;;;2.46;100.00;100377.81;5095189;28;20484;-70
2022/01/08 04:15:06;;;;;;;0.40;0.30;;;;;;;2.48;100.00;100383.75;5095260;28;20485;-70
2022/01/08 04:17:32;;;;;;;0.40;0.20;;;;;;;2.49;100.00;100385.34;5095168;28;20548;-70
2022/01/08 04:20:00;;;;;;;0.40;0.30;;;;;;;2.51;100.00;100380.53;5095127;28;20453;-71
2022/01/08 04:22:28;;;;;;;0.40;0.30;;;;;;;2.52;100.00;100378.66;5094956;28;20861;-70
2022/01/08 04:24:56;;;;;;;0.40;0.30;;;;;;;2.51;100.00;100379.75;5095030;28;20447;-70
2022/01/08 04:27:22;;;;;;;0.40;0.20;;;;;;;2.50;100.00;100386.16;5094835;28;20484;-70
2022/01/08 04:29:48;;;;;;;0.87;0.87;;;;;;;2.50;100.00;100394.16;5094907;28;20440;-70
2022/01/08 04:32:15;;;;;;;0.40;0.30;;;;;;;2.47;100.00;100392.78;5094788;28;20468;-70
2022/01/08 04:34:41;;;;;;;0.40;0.20;;;;;;;2.48;100.00;100388.28;5093829;28;20440;-70
2022/01/08 04:37:09;;;;;;;0.40;0.30;;;;;;;2.51;100.00;100388.56;5094825;28;20437;-70
2022/01/08 04:39:35;;;;;;;0.40;0.30;;;;;;;2.53;100.00;100389.13;5094796;28;20444;-71
2022/01/08 04:42:02;;;;;;;0.40;0.20;;;;;;;2.50;100.00;100389.63;5094627;28;20491;-70
2022/01/08 04:44:28;;;;;;;0.40;0.30;;;;;;;2.50;100.00;100386.97;5094304;28;20956;-71
2022/01/08 04:46:55;;;;;;;0.40;0.20;;;;;;;2.51;100.00;100393.91;5094171;28;21005;-71
2022/01/08 04:49:21;;;;;;;0.40;0.30;;;;;;;2.50;100.00;100388.81;5094022;28;20464;-71
2022/01/08 04:51:48;;;;;;;0.40;0.30;;;;;;;2.48;100.00;100388.28;5094337;28;20440;-70
2022/01/08 04:54:15;;;;;;;0.40;0.30;;;;;;;2.48;100.00;100383.75;5094480;28;20436;-71
2022/01/08 04:56:42;;;;;;;0.60;0.50;;;;;;;2.44;100.00;100390.66;5094406;28;20445;-71
2022/01/08 04:59:08;;;;;;;0.40;0.20;;;;;;;2.47;100.00;100390.13;5094018;28;20814;-71
2022/01/08 05:01:35;;;;;;;0.40;0.30;;;;;;;2.45;100.00;100397.59;5094037;28;20451;-70
2022/01/08 05:04:02;;;;;;;0.40;0.30;;;;;;;2.43;100.00;100409.59;5094282;28;20490;-70
2022/01/08 05:06:28;;;;;;;0.40;0.20;;;;;;;2.41;100.00;100390.34;5094096;28;20484;-71
2022/01/08 05:08:55;;;;;;;0.40;0.30;;;;;;;2.37;100.00;100395.38;5093829;28;20444;-71
2022/01/08 05:11:22;;;;;;;0.40;0.30;;;;;;;2.32;100.00;100402.53;5094158;28;20440;-71
2022/01/08 05:13:50;;;;;;;0.40;0.30;;;;;;;2.25;100.00;100394.69;5093961;28;20472;-71
2022/01/08 05:16:17;;;;;;;0.40;0.30;;;;;;;2.21;100.00;100397.09;5094027;28;20509;-71
2022/01/08 05:18:44;;;;;;;0.40;0.30;;;;;;;2.19;100.00;100393.84;5093982;28;20448;-71
2022/01/08 05:21:17;;;;;;;0.40;0.30;;;;;;;2.15;100.00;100391.91;5093973;28;20493;-72
2022/01/08 05:23:44;;;;;;;0.40;0.30;;;;;;;2.11;100.00;100394.28;5093894;28;20521;-71
2022/01/08 05:26:10;;;;;;;0.40;0.30;;;;;;;2.08;100.00;100397.47;5094030;28;20484;-71
2022/01/08 05:28:38;;;;;;;0.40;0.30;;;;;;;2.04;100.00;100396.34;5093840;28;20437;-71
2022/01/08 05:31:04;;;;;;;0.40;0.30;;;;;;;2.07;100.00;100398.50;5093766;28;20469;-72
2022/01/08 05:33:31;;;;;;;0.40;0.30;;;;;;;2.10;100.00;100389.19;5093671;28;20471;-69
2022/01/08 05:35:57;;;;;;;0.40;0.20;;;;;;;2.08;100.00;100394.78;5093704;28;20432;-69
2022/01/08 05:38:24;;;;;;;0.40;0.30;;;;;;;2.12;100.00;100403.91;5093700;28;20432;-70
2022/01/08 05:40:50;;;;;;;0.40;0.30;;;;;;;2.15;100.00;100406.09;5093673;28;20448;-70
2022/01/08 05:43:17;;;;;;;0.40;0.20;;;;;;;2.20;100.00;100414.16;5093543;28;20457;-71
2022/01/08 05:45:45;;;;;;;0.40;0.23;;;;;;;2.20;100.00;100411.47;5092665;28;20490;-71
2022/01/08 05:48:12;;;;;;;0.40;0.30;;;;;;;2.27;100.00;100412.09;5093822;28;20437;-72
2022/01/08 05:50:39;;;;;;;0.40;0.30;;;;;;;2.33;100.00;100422.84;5093543;28;20797;-71
2022/01/08 05:53:05;;;;;;;0.40;0.20;;;;;;;2.36;100.00;100425.84;5093414;28;20479;-72
2022/01/08 05:55:32;;;;;;;0.40;0.30;;;;;;;2.38;100.00;100417.56;5093477;28;20445;-72
2022/01/08 05:57:59;;;;;;;0.40;0.30;;;;;;;2.44;100.00;100412.03;5093414;28;20441;-71
2022/01/08 06:00:25;;;;;;;0.40;0.40;;;;;;;2.49;100.00;100424.63;5093458;28;20455;-71
2022/01/08 06:02:53;;;;;;;0.40;0.20;;;;;;;2.50;100.00;100420.91;5093035;28;20509;-71
2022/01/08 06:05:20;;;;;;;0.40;0.30;;;;;;;2.54;100.00;100424.69;5093410;28;20452;-72
2022/01/08 06:07:46;;;;;;;0.40;0.30;;;;;;;2.57;100.00;100421.53;5093239;28;20557;-71
2022/01/08 06:10:12;;;;;;;0.40;0.30;;;;;;;2.55;100.00;100420.16;5093343;28;20470;-71
2022/01/08 06:12:39;;;;;;;0.40;0.20;;;;;;;2.57;100.00;100421.53;5093223;28;20463;-72
2022/01/08 06:15:06;;;;;;;6.00;2.63;;;;;;;2.63;100.00;100425.84;5093281;28;20557;-71
2022/01/08 06:17:32;;;;;;;0.40;0.20;;;;;;;2.65;100.00;100417.56;5093339;28;20511;-72
2022/01/08 06:20:00;;;;;;;0.40;0.30;;;;;;;2.69;100.00;100421.34;5093347;28;20448;-72
2022/01/08 06:22:26;;;;;;;0.40;0.30;;;;;;;2.70;100.00;100423.78;5092284;28;20866;-72
2022/01/08 06:24:53;;;;;;;0.40;0.20;;;;;;;2.70;100.00;100426.47;5093262;28;20440;-72
2022/01/08 06:27:19;;;;;;;0.40;0.30;;;;;;;2.72;100.00;100434.22;5093078;28;20480;-72
2022/01/08 06:29:46;;;;;;;0.40;0.30;;;;;;;2.76;100.00;100430.78;5093105;28;20445;-72
2022/01/08 06:32:14;;;;;;;0.40;0.30;;;;;;;2.73;100.00;100436.63;5093031;28;20464;-72
2022/01/08 06:34:40;;;;;;;0.40;0.30;;;;;;;2.70;100.00;100437.16;5093119;28;20483;-72
2022/01/08 06:37:08;;;;;;;0.40;0.30;;;;;;;2.67;100.00;100436.84;5093055;28;20436;-72
2022/01/08 06:39:34;;;;;;;0.40;0.30;;;;;;;2.67;100.00;100437.66;5093077;28;20490;-72
2022/01/08 06:42:01;;;;;;;1.47;1.37;;;;;;;2.67;100.00;100447.56;5092719;28;20521;-72
2022/01/08 06:44:28;;;;;;;0.40;0.30;;;;;;;2.67;100.00;100450.22;5093002;28;20440;-72
2022/01/08 06:46:54;;;;;;;2.00;1.90;;;;;;;2.62;100.00;100456.31;5092901;28;20538;-72
2022/01/08 06:49:21;;;;;;;0.40;0.23;;;;;;;2.65;100.00;100458.47;5092945;28;20455;-72
2022/01/08 06:51:47;;;;;;;0.40;0.30;;;;;;;2.70;100.00;100458.56;5092879;28;20440;-72
2022/01/08 06:54:15;;;;;;;0.40;0.20;;;;;;;2.71;100.00;100460.16;5093039;28;20447;-72
2022/01/08 06:56:41;;;;;;;0.40;0.40;;;;;;;2.73;100.00;100457.22;5093281;28;20440;-73
2022/01/08 06:59:08;;;;;;;0.40;0.30;;;;;;;2.77;100.00;100459.16;5096653;28;20440;-70
2022/01/08 07:01:35;;;;;;;0.40;0.30;;;;;;;2.74;100.00;100456.97;5096187;28;20816;-71
2022/01/08 07:04:01;;;;;;;0.40;0.20;;;;;;;2.72;100.00;100456.41;5096596;28;20444;-70
2022/01/08 07:06:28;;;;;;;0.40;0.20;;;;;;;2.72;100.00;100453.75;5096628;28;20484;-70
2022/01/08 07:08:55;;;;;;;0.40;0.20;;;;;;;2.77;100.00;100459.16;5096518;28;20489;-70
2022/01/08 07:11:23;;;;;;;0.40;0.20;;;;;;;2.82;100.00;100460.25;5096443;28;20443;-70
2022/01/08 07:13:49;;;;;;;0.40;0.20;;;;;;;2.81;100.00;100455.97;5096326;28;20460;-70
2022/01/08 07:16:16;;;;;;;0.80;0.80;;;;;;;2.76;100.00;100460.22;5097669;28;20497;-70
2022/01/08 07:18:42;;;;;;;0.40;0.30;;;;;;;2.80;100.00;100470.41;5095966;28;20934;-71
2022/01/08 07:21:09;;;;;;;0.40;0.30;;;;;;;2.74;100.00;100470.34;5096237;28;20436;-70
2022/01/08 07:23:35;;;;;;;0.40;0.30;;;;;;;2.73;100.00;100467.94;5095991;28;20460;-71
2022/01/08 07:26:02;;;;;;;0.40;0.30;;;;;;;2.66;100.00;100475.34;5096119;28;20798;-70
2022/01/08 07:28:29;;;;;;;0.40;0.27;;;;;;;2.62;100.00;100466.22;5096118;28;20451;-70
2022/01/08 07:30:56;;;;;;;0.40;0.30;;;;;;;2.62;100.00;100466.22;5096050;28;20859;-70
2022/01/08 07:33:22;;;;;;;0.40;0.20;;;;;;;2.59;100.00;100470.19;5095653;28;20817;-70
2022/01/08 07:35:49;;;;;;;1.80;1.70;;;;;;;2.54;100.00;100467.47;5096024;28;20440;-71
2022/01/08 07:38:15;;;;;;;0.40;0.30;;;;;;;2.53;100.00;100476.53;5095905;28;20452;-71
2022/01/08 07:40:42;;;;;;;0.40;0.30;;;;;;;2.52;100.00;100472.22;5095860;28;20476;-71
2022/01/08 07:43:08;;;;;;;0.40;0.30;;;;;;;2.44;100.00;100478.84;5095865;28;20467;-70
2022/01/08 07:45:36;;;;;;;0.40;0.20;;;;;;;2.43;100.00;100476.41;5095584;28;20964;-71
2022/01/08 07:48:02;;;;;;;0.40;0.30;;;;;;;2.38;100.00;100476.34;5095598;28;20480;-70
2022/01/08 07:50:29;;;;;;;0.40;0.30;;;;;;;2.38;100.00;100476.34;5095493;28;20945;-70
2022/01/08 07:52:56;;;;;;;0.40;0.30;;;;;;;2.35;100.00;100469.66;5095743;28;20456;-70
2022/01/08 07:55:22;;;;;;;0.40;0.30;;;;;;;2.35;100.00;100482.22;5095603;28;20444;-70
2022/01/08 07:57:49;;;;;;;0.40;0.30;;;;;;;2.32;100.00;100474.69;5095608;28;20490;-71
2022/01/08 08:00:16;;;;;;;0.40;0.30;;;;;;;2.39;100.00;100481.47;5095240;28;20988;-70
2022/01/08 08:02:44;;;;;;;0.40;0.30;;;;;;;2.43;100.00;100481.75;5095222;28;20517;-70
2022/01/08 08:05:10;;;;;;;0.40;0.20;;;;;;;2.41;100.00;100475.88;5095393;28;20482;-70
2022/01/08 08:07:37;;;;;;;0.40;0.30;;;;;;;2.42;100.00;100474.81;5095297;28;20488;-71
2022/01/08 08:10:06;;;;;;;0.40;0.20;;;;;;;2.51;100.00;100484.00;5094422;28;20441;-70
2022/01/08 08:12:33;;;;;;;0.40;0.20;;;;;;;2.48;100.00;100484.50;5094744;28;20464;-70
2022/01/08 08:14:59;;;;;;;0.40;0.30;;;;;;;2.52;100.00;100489.09;5095119;28;20436;-71
2022/01/08 08:17:26;;;;;;;0.40;0.30;;;;;;;2.62;100.00;100490.28;5095176;28;20482;-71
2022/01/08 08:19:54;;;;;;;0.40;0.30;;;;;;;2.67;100.00;100490.34;5095203;28;20847;-70
2022/01/08 08:22:20;;;;;;;0.40;0.30;;;;;;;2.70;100.00;100490.66;5095018;28;20869;-69
2022/01/08 08:24:46;;;;;;;0.40;0.20;;;;;;;2.70;100.00;100487.97;5095066;28;20436;-70
2022/01/08 08:27:13;;;;;;;0.40;0.30;;;;;;;2.71;100.00;100484.22;5094918;28;20499;-69
2022/01/08 08:29:40;;;;;;;0.40;0.30;;;;;;;2.75;100.00;100479.19;5094983;28;20445;-69
2022/01/08 08:32:07;;;;;;;0.40;0.30;;;;;;;2.74;100.00;100465.00;5094860;28;20496;-71
2022/01/08 08:34:34;;;;;;;0.40;0.30;;;;;;;2.73;100.00;100476.75;5094758;28;20848;-68
2022/01/08 08:37:02;;;;;;;0.40;0.30;;;;;;;2.75;100.00;100469.31;5094843;28;20444;-68
2022/01/08 08:39:28;;;;;;;0.40;0.30;;;;;;;2.77;100.00;100459.16;5094901;28;20807;-68
2022/01/08 08:41:55;;;;;;;0.40;0.30;;;;;;;2.82;100.00;100458.38;5094697;28;20448;-68
2022/01/08 08:44:21;;;;;;;0.40;0.30;;;;;;;2.84;100.00;100458.97;5094667;28;20449;-71
2022/01/08 08:46:48;;;;;;;0.40;0.30;;;;;;;2.87;100.00;100453.09;5094558;28;20486;-69
2022/01/08 08:49:14;;;;;;;0.40;0.30;;;;;;;2.87;100.00;100454.94;5094588;28;20486;-69
2022/01/08 08:51:41;;;;;;;8.23;4.20;;;;;;;2.87;100.00;100454.94;5094437;28;20467;-69
2022/01/08 08:54:08;;;;;;;0.40;0.20;;;;;;;2.83;100.00;100448.50;5094541;28;20792;-69
2022/01/08 08:56:35;;;;;;;0.40;0.30;;;;;;;2.82;100.00;100445.00;5094152;28;20998;-70
2022/01/08 08:59:01;;;;;;;0.40;0.30;;;;;;;2.69;100.00;100454.25;5094370;28;20440;-69
2022/01/08 09:01:28;;;;;;;0.40;0.30;;;;;;;2.70;100.00;100452.38;5094322;28;20493;-69
2022/01/08 09:03:55;;;;;;;0.40;0.20;;;;;;;2.68;100.00;100455.31;5094095;28;21062;-70
2022/01/08 09:06:22;;;;;;;0.40;0.20;;;;;;;2.64;100.00;100458.75;5094337;28;20799;-69
2022/01/08 09:08:49;;;;;;;0.40;0.30;;;;;;;2.63;100.00;100462.47;5094105;28;20705;-69
2022/01/08 09:11:17;;;;;;;0.40;0.30;;;;;;;2.64;100.00;100459.53;5094192;28;20445;-69
2022/01/08 09:13:44;;;;;;;0.40;0.30;;;;;;;2.64;100.00;100461.41;5094030;28;20463;-69
2022/01/08 09:16:10;;;;;;;0.40;0.30;;;;;;;2.65;100.00;100457.66;5093993;28;20444;-69
2022/01/08 09:18:37;;;;;;;0.40;0.30;;;;;;;2.62;100.00;100467.03;5093980;28;20443;-69
2022/01/08 09:21:04;;;;;;;0.40;0.30;;;;;;;2.63;100.00;100468.63;5093848;28;20432;-69
2022/01/08 09:23:31;;;;;;;0.40;0.30;;;;;;;2.59;100.00;100470.19;5094008;28;20504;-69
2022/01/08 09:25:58;;;;;;;0.40;0.30;;;;;;;2.58;100.00;100471.25;5093613;28;20953;-69
2022/01/08 09:28:26;;;;;;;0.40;0.30;;;;;;;2.59;100.00;100480.88;5093481;28;20993;-69
2022/01/08 09:30:52;;;;;;;0.40;0.30;;;;;;;2.59;100.00;100478.22;5093504;28;20949;-69
2022/01/08 09:33:19;;;;;;;0.40;0.20;;;;;;;2.61;100.00;100469.94;5093371;28;21038;-69
2022/01/08 09:35:45;;;;;;;0.40;0.30;;;;;;;2.60;100.00;100477.16;5093714;28;20455;-69
2022/01/08 09:38:12;;;;;;;0.40;0.30;;;;;;;2.63;100.00;100473.97;5093746;28;20436;-70
2022/01/08 09:40:41;;;;;;;0.40;0.30;;;;;;;2.64;100.00;100480.94;5093397;28;20447;-69
2022/01/08 09:43:07;;;;;;;0.40;0.30;;;;;;;2.65;100.00;100477.19;5093333;28;20490;-69
2022/01/08 09:45:35;;;;;;;0.40;0.30;;;;;;;2.57;100.00;100475.00;5093714;28;20804;-69
2022/01/08 09:48:02;;;;;;;0.40;0.20;;;;;;;2.58;100.00;100479.28;5093467;28;20480;-70
2022/01/08 09:50:29;;;;;;;0.50;0.43;;;;;;;2.54;100.00;100480.81;5093514;28;20448;-69
2022/01/08 09:52:57;;;;;;;0.40;0.30;;;;;;;2.54;100.00;100467.47;5093459;28;20513;-70
2022/01/08 09:55:24;;;;;;;0.60;0.60;;;;;;;2.51;100.00;100460.75;5093421;28;20451;-70
2022/01/08 09:57:51;;;;;;;0.40;0.30;;;;;;;2.50;100.00;100461.00;5093688;28;20451;-69
2022/01/08 10:00:18;;;;;;;0.40;0.30;;;;;;;2.49;100.00;100462.88;5093459;28;20444;-69
2022/01/08 10:02:46;;;;;;;0.40;0.30;;;;;;;2.47;100.00;100454.28;5093192;28;20483;-69
2022/01/08 10:05:15;;;;;;;0.40;0.30;;;;;;;2.47;100.00;100448.94;5093034;28;20948;-70
2022/01/08 10:07:42;;;;;;;0.40;0.20;;;;;;;2.51;100.00;100459.94;5093194;28;20515;-70
2022/01/08 10:10:12;;;;;;;0.40;0.30;;;;;;;2.56;100.00;100461.84;5093473;28;20436;-70
2022/01/08 10:12:46;;;;;;;0.40;0.30;;;;;;;2.61;100.00;100457.41;5093507;28;20471;-69
2022/01/08 10:18:01;;;;;;;0.40;0.20;;;;;;;2.65;100.00;100453.13;5093197;28;20442;-69
2022/01/08 10:20:33;;;;;;;0.40;0.30;;;;;;;2.67;100.00;100445.69;5092770;28;20447;-70
2022/01/08 10:23:10;;;;;;;0.40;0.30;;;;;;;2.69;100.00;100448.09;5093105;28;20488;-70
2022/01/08 10:25:36;;;;;;;0.40;0.20;;;;;;;2.74;100.00;100445.47;5093195;28;20455;-69
2022/01/08 10:28:03;;;;;;;0.40;0.30;;;;;;;2.74;100.00;100448.94;5092759;28;21058;-70
2022/01/08 10:30:29;;;;;;;0.40;0.30;;;;;;;2.81;100.00;100445.28;5093138;28;20441;-70
2022/01/08 10:32:57;;;;;;;0.40;0.20;;;;;;;2.86;100.00;100440.78;5095569;28;20464;-69
2022/01/08 10:35:49;;;;;;;0.40;0.20;;;;;;;2.99;100.00;100439.56;5097145;28;20444;-69
2022/01/08 10:38:16;;;;;;;0.40;0.30;;;;;;;3.00;100.00;100435.81;5096746;28;20890;-69
2022/01/08 10:40:42;;;;;;;0.40;0.20;;;;;;;3.08;100.00;100435.34;5097049;28;20472;-69
2022/01/08 10:43:23;;;;;;;0.40;0.30;;;;;;;3.12;100.00;100435.66;5096560;28;20488;-69
2022/01/08 10:45:50;;;;;;;0.40;0.30;;;;;;;3.22;100.00;100433.84;5096951;28;20440;-70
2022/01/08 10:48:25;;;;;;;0.40;0.30;;;;;;;3.28;100.00;100432.84;5096877;28;20484;-69
2022/01/08 10:50:53;;;;;;;0.50;0.40;;;;;;;3.34;100.00;100436.38;5096781;28;20440;-69
2022/01/08 10:53:20;;;;;;;0.40;0.30;;;;;;;3.38;100.00;100437.47;5096795;28;20464;-70
2022/01/08 10:55:47;;;;;;;0.40;0.30;;;;;;;3.43;100.00;100437.50;5096782;28;20472;-70
2022/01/08 10:58:13;;;;;;;0.40;0.30;;;;;;;3.54;100.00;100444.56;5096679;28;20440;-70
2022/01/08 11:00:40;;;;;;;0.40;0.30;;;;;;;3.63;100.00;100452.91;5096292;28;20436;-70
2022/01/08 11:03:06;;;;;;;0.93;0.93;;;;;;;3.65;100.00;100444.59;5096117;28;21016;-69
2022/01/08 11:05:33;;;;;;;0.40;0.20;;;;;;;3.67;100.00;100451.31;5096194;28;20922;-69
2022/01/08 11:08:15;;;;;;;0.40;0.30;;;;;;;3.69;100.00;100443.84;5096422;28;20484;-69
2022/01/08 11:10:42;;;;;;;0.40;0.30;;;;;;;3.35;99.60;100446.00;5096548;28;20432;-70
2022/01/08 11:13:15;;;;;;;0.50;0.30;;;;;;;3.41;99.77;100447.69;5096142;28;20459;-67
2022/01/08 11:15:51;;;;;;;0.40;0.30;;;;;;;3.44;100.00;100447.13;5096387;28;20440;-68
2022/01/08 11:18:19;;;;;;;0.40;0.30;;;;;;;3.38;98.84;100452.72;5096135;28;20901;-69
2022/01/08 11:20:46;;;;;;;0.40;0.30;;;;;;;3.40;98.99;100445.22;5096260;28;20874;-69
2022/01/08 11:23:19;;;;;;;0.40;0.20;;;;;;;3.42;99.69;100454.63;5096194;28;20459;-69
2022/01/08 11:25:49;;;;;;;0.40;0.30;;;;;;;3.45;99.21;100451.44;5096241;28;20429;-69
2022/01/08 11:28:18;;;;;;;0.40;0.30;;;;;;;3.41;97.97;100453.03;5096437;28;20472;-69
2022/01/08 11:30:47;;;;;;;0.40;0.20;;;;;;;3.40;97.92;100439.88;5096125;28;20856;-69
2022/01/08 11:33:20;;;;;;;0.40;0.30;;;;;;;3.49;98.68;100441.81;5095645;28;20991;-69
2022/01/08 11:35:49;;;;;;;0.60;0.60;;;;;;;3.55;97.83;100448.03;5095927;28;20459;-68
2022/01/08 11:38:19;;;;;;;0.40;0.27;;;;;;;3.56;98.25;100438.94;5096100;28;20440;-68
2022/01/08 11:40:48;;;;;;;0.40;0.30;;;;;;;3.60;98.73;100444.59;5095951;28;20524;-68
2022/01/08 11:43:16;;;;;;;0.40;0.20;;;;;;;3.67;98.71;100435.22;5094712;28;20452;-68
2022/01/08 11:45:47;;;;;;;0.40;0.30;;;;;;;3.68;98.07;100439.56;5096121;28;20449;-68